SWA2085 KTUL-KDAL
Flight info
| Callsign | SWA2085 |
|---|---|
| Flight time | 0h 45m |
| Altitude | 22000 |
| Route | PEJAY AXXEE CRIKT1 |
| Aircraft | B737/M-SDE2E3GIJ4RWZ/LB1D1 |
Departure
| Time | 2026-05-05 17:07 |
|---|---|
| Airport | Tulsa International Airport (KTUL) |
Arrival
| Time | 2026-05-05 17:52 |
|---|---|
| Airport | Dallas Love Field (KDAL) |
| Time | Latitude | Longitude | Altitude | Speed | Heading |
|---|---|---|---|---|---|
| 2026-05-05 16:35 | 36.19195 | -95.89028 | 666 ft | 0 kts | 128° |
| 2026-05-05 17:00 | 36.19209 | -95.89051 | 643 ft | 4 kts | 127° |
| 2026-05-05 17:00 | 36.19222 | -95.89071 | 682 ft | 4 kts | 128° |
| 2026-05-05 17:00 | 36.19232 | -95.89087 | 666 ft | 1 kts | 128° |
| 2026-05-05 17:03 | 36.19231 | -95.89075 | 665 ft | 2 kts | 82° |
| 2026-05-05 17:03 | 36.19248 | -95.89057 | 666 ft | 5 kts | 41° |
| 2026-05-05 17:03 | 36.19296 | -95.89009 | 666 ft | 12 kts | 34° |
| 2026-05-05 17:03 | 36.19365 | -95.88953 | 667 ft | 12 kts | 37° |
| 2026-05-05 17:04 | 36.19419 | -95.88895 | 667 ft | 7 kts | 46° |
| 2026-05-05 17:04 | 36.19439 | -95.88842 | 667 ft | 7 kts | 79° |
| 2026-05-05 17:04 | 36.19446 | -95.88759 | 667 ft | 14 kts | 87° |
| 2026-05-05 17:04 | 36.19444 | -95.88607 | 667 ft | 21 kts | 88° |
| 2026-05-05 17:05 | 36.19452 | -95.88397 | 667 ft | 27 kts | 88° |
| 2026-05-05 17:05 | 36.19449 | -95.88169 | 667 ft | 16 kts | 93° |
| 2026-05-05 17:05 | 36.19373 | -95.88128 | 667 ft | 15 kts | 186° |
| 2026-05-05 17:05 | 36.19249 | -95.88141 | 667 ft | 21 kts | 184° |
| 2026-05-05 17:06 | 36.19076 | -95.88158 | 667 ft | 31 kts | 195° |
| 2026-05-05 17:06 | 36.18824 | -95.88165 | 667 ft | 38 kts | 183° |
| 2026-05-05 17:06 | 36.18661 | -95.88203 | 667 ft | 15 kts | 248° |
| 2026-05-05 17:06 | 36.18694 | -95.88307 | 666 ft | 14 kts | 336° |
| 2026-05-05 17:07 | 36.18870 | -95.88297 | 665 ft | 54 kts | 4° |
| 2026-05-05 17:07 | 36.19497 | -95.88258 | 669 ft | 122 kts | 4° |
| 2026-05-05 17:07 | 36.20473 | -95.88192 | 989 ft | 148 kts | 4° |
| 2026-05-05 17:07 | 36.21531 | -95.88210 | 1563 ft | 167 kts | 356° |
| 2026-05-05 17:08 | 36.22826 | -95.88227 | 1856 ft | 200 kts | 356° |
| 2026-05-05 17:08 | 36.24281 | -95.88239 | 2444 ft | 215 kts | 1° |
| 2026-05-05 17:08 | 36.25816 | -95.88061 | 2978 ft | 234 kts | 2° |
| 2026-05-05 17:08 | 36.27498 | -95.87853 | 3416 ft | 248 kts | 6° |
| 2026-05-05 17:09 | 36.29109 | -95.87063 | 4056 ft | 257 kts | 35° |
| 2026-05-05 17:09 | 36.30295 | -95.85341 | 4478 ft | 271 kts | 67° |
| 2026-05-05 17:09 | 36.30691 | -95.83063 | 5142 ft | 275 kts | 96° |
| 2026-05-05 17:09 | 36.30192 | -95.80776 | 5746 ft | 277 kts | 126° |
| 2026-05-05 17:10 | 36.28893 | -95.79072 | 6540 ft | 272 kts | 153° |
| 2026-05-05 17:10 | 36.27152 | -95.78240 | 7379 ft | 268 kts | 172° |
| 2026-05-05 17:10 | 36.25311 | -95.77802 | 8284 ft | 272 kts | 174° |
| 2026-05-05 17:10 | 36.23434 | -95.77408 | 9234 ft | 276 kts | 174° |
| 2026-05-05 17:11 | 36.21524 | -95.77014 | 10090 ft | 282 kts | 174° |
| 2026-05-05 17:11 | 36.19537 | -95.76602 | 10624 ft | 301 kts | 174° |
| 2026-05-05 17:11 | 36.17369 | -95.76149 | 10812 ft | 330 kts | 174° |
| 2026-05-05 17:11 | 36.15043 | -95.75654 | 11289 ft | 346 kts | 174° |
| 2026-05-05 17:12 | 36.12684 | -95.75140 | 12094 ft | 351 kts | 173° |
| 2026-05-05 17:12 | 36.10261 | -95.74604 | 12866 ft | 357 kts | 174° |
| 2026-05-05 17:12 | 36.07753 | -95.74049 | 13615 ft | 365 kts | 173° |
| 2026-05-05 17:12 | 36.05268 | -95.73497 | 14347 ft | 370 kts | 173° |
| 2026-05-05 17:13 | 36.02720 | -95.72933 | 15111 ft | 375 kts | 174° |
| 2026-05-05 17:13 | 36.00134 | -95.72362 | 15882 ft | 380 kts | 174° |
| 2026-05-05 17:13 | 35.97511 | -95.71783 | 16648 ft | 386 kts | 174° |
| 2026-05-05 17:13 | 35.94845 | -95.71195 | 17422 ft | 391 kts | 174° |
| 2026-05-05 17:14 | 35.92147 | -95.70600 | 18176 ft | 397 kts | 174° |
| 2026-05-05 17:14 | 35.89403 | -95.69996 | 18810 ft | 403 kts | 175° |
| 2026-05-05 17:14 | 35.86615 | -95.69383 | 19457 ft | 408 kts | 175° |
| 2026-05-05 17:14 | 35.83809 | -95.68767 | 20101 ft | 413 kts | 175° |
| 2026-05-05 17:15 | 35.80958 | -95.68139 | 20750 ft | 418 kts | 175° |
| 2026-05-05 17:15 | 35.78079 | -95.67505 | 21400 ft | 420 kts | 176° |
| 2026-05-05 17:15 | 35.75186 | -95.66869 | 21742 ft | 427 kts | 175° |
| 2026-05-05 17:15 | 35.72236 | -95.66219 | 21726 ft | 431 kts | 176° |
| 2026-05-05 17:16 | 35.69271 | -95.65571 | 21741 ft | 433 kts | 176° |
| 2026-05-05 17:16 | 35.66313 | -95.65016 | 21740 ft | 428 kts | 181° |
| 2026-05-05 17:16 | 35.63365 | -95.64966 | 21747 ft | 420 kts | 191° |
| 2026-05-05 17:16 | 35.60477 | -95.65428 | 21750 ft | 416 kts | 195° |
| 2026-05-05 17:17 | 35.57615 | -95.65965 | 21728 ft | 416 kts | 195° |
| 2026-05-05 17:17 | 35.54793 | -95.66506 | 21726 ft | 416 kts | 195° |
| 2026-05-05 17:17 | 35.51930 | -95.67050 | 21731 ft | 416 kts | 195° |
| 2026-05-05 17:17 | 35.49070 | -95.67584 | 21725 ft | 416 kts | 195° |
| 2026-05-05 17:18 | 35.46195 | -95.68111 | 21715 ft | 417 kts | 195° |
| 2026-05-05 17:18 | 35.43332 | -95.68631 | 21721 ft | 417 kts | 195° |
| 2026-05-05 17:18 | 35.40461 | -95.69147 | 21721 ft | 417 kts | 195° |
| 2026-05-05 17:18 | 35.37592 | -95.69657 | 21713 ft | 416 kts | 195° |
| 2026-05-05 17:19 | 35.34726 | -95.70165 | 21717 ft | 416 kts | 195° |
| 2026-05-05 17:19 | 35.31860 | -95.70674 | 21714 ft | 416 kts | 195° |
| 2026-05-05 17:19 | 35.28987 | -95.71184 | 21715 ft | 416 kts | 195° |
| 2026-05-05 17:19 | 35.26126 | -95.71691 | 21701 ft | 416 kts | 195° |
| 2026-05-05 17:20 | 35.23260 | -95.72200 | 21700 ft | 416 kts | 195° |
| 2026-05-05 17:20 | 35.20392 | -95.72708 | 21711 ft | 416 kts | 195° |
| 2026-05-05 17:20 | 35.17527 | -95.73215 | 21721 ft | 416 kts | 195° |
| 2026-05-05 17:20 | 35.14669 | -95.73721 | 21725 ft | 416 kts | 195° |
| 2026-05-05 17:21 | 35.11804 | -95.74229 | 21727 ft | 416 kts | 195° |
| 2026-05-05 17:21 | 35.08939 | -95.74736 | 21726 ft | 416 kts | 195° |
| 2026-05-05 17:21 | 35.06076 | -95.75242 | 21730 ft | 415 kts | 195° |
| 2026-05-05 17:22 | 35.00349 | -95.76252 | 21732 ft | 415 kts | 195° |
| 2026-05-05 17:22 | 34.97494 | -95.76756 | 21740 ft | 415 kts | 195° |
| 2026-05-05 17:22 | 34.94636 | -95.77261 | 21735 ft | 415 kts | 195° |
| 2026-05-05 17:22 | 34.91775 | -95.77766 | 21737 ft | 415 kts | 195° |
| 2026-05-05 17:23 | 34.88925 | -95.78268 | 21731 ft | 414 kts | 195° |
| 2026-05-05 17:23 | 34.86069 | -95.78770 | 21733 ft | 414 kts | 195° |
| 2026-05-05 17:23 | 34.83223 | -95.79271 | 21741 ft | 414 kts | 195° |
| 2026-05-05 17:23 | 34.80372 | -95.79771 | 21740 ft | 414 kts | 195° |
| 2026-05-05 17:24 | 34.77516 | -95.80273 | 21737 ft | 414 kts | 195° |
| 2026-05-05 17:24 | 34.74673 | -95.80772 | 21732 ft | 413 kts | 195° |
| 2026-05-05 17:24 | 34.71820 | -95.81272 | 21732 ft | 414 kts | 195° |
| 2026-05-05 17:24 | 34.69005 | -95.81766 | 21728 ft | 414 kts | 195° |
| 2026-05-05 17:25 | 34.66153 | -95.82264 | 21721 ft | 414 kts | 195° |
| 2026-05-05 17:25 | 34.64230 | -95.82600 | 21721 ft | 414 kts | 195° |
| 2026-05-05 17:25 | 34.60456 | -95.83260 | 21720 ft | 414 kts | 195° |
| 2026-05-05 17:25 | 34.57606 | -95.83758 | 21718 ft | 414 kts | 195° |
| 2026-05-05 17:26 | 34.54749 | -95.84256 | 21714 ft | 414 kts | 195° |
| 2026-05-05 17:26 | 34.51904 | -95.84752 | 21708 ft | 414 kts | 195° |
| 2026-05-05 17:26 | 34.49047 | -95.85251 | 21708 ft | 414 kts | 195° |
| 2026-05-05 17:26 | 34.46197 | -95.85748 | 21714 ft | 414 kts | 195° |
| 2026-05-05 17:27 | 34.43346 | -95.86244 | 21712 ft | 413 kts | 195° |
| 2026-05-05 17:27 | 34.40499 | -95.86739 | 21713 ft | 413 kts | 195° |
| 2026-05-05 17:27 | 34.37658 | -95.87236 | 21725 ft | 412 kts | 195° |
| 2026-05-05 17:27 | 34.34810 | -95.87730 | 21719 ft | 413 kts | 195° |
| 2026-05-05 17:28 | 34.31975 | -95.88248 | 21716 ft | 410 kts | 199° |
| 2026-05-05 17:28 | 34.29261 | -95.89193 | 21730 ft | 402 kts | 206° |
| 2026-05-05 17:28 | 34.26632 | -95.90344 | 21717 ft | 402 kts | 208° |
| 2026-05-05 17:28 | 34.24017 | -95.91537 | 21721 ft | 401 kts | 208° |
| 2026-05-05 17:29 | 34.21398 | -95.92726 | 21719 ft | 402 kts | 208° |
| 2026-05-05 17:29 | 34.18772 | -95.93898 | 21723 ft | 402 kts | 207° |
| 2026-05-05 17:29 | 34.16142 | -95.95050 | 21718 ft | 402 kts | 207° |
| 2026-05-05 17:29 | 34.13510 | -95.96188 | 21714 ft | 402 kts | 207° |
| 2026-05-05 17:30 | 34.10874 | -95.97322 | 21723 ft | 402 kts | 207° |
| 2026-05-05 17:30 | 34.08246 | -95.98448 | 21725 ft | 401 kts | 207° |
| 2026-05-05 17:30 | 34.05610 | -95.99576 | 21714 ft | 401 kts | 207° |
| 2026-05-05 17:30 | 34.03012 | -96.00684 | 21703 ft | 390 kts | 207° |
| 2026-05-05 17:31 | 34.00483 | -96.01759 | 21723 ft | 383 kts | 207° |
| 2026-05-05 17:31 | 33.97977 | -96.02832 | 21725 ft | 381 kts | 207° |
| 2026-05-05 17:31 | 33.95509 | -96.03890 | 21733 ft | 381 kts | 207° |
| 2026-05-05 17:31 | 33.93005 | -96.04963 | 21373 ft | 384 kts | 207° |
| 2026-05-05 17:32 | 33.90515 | -96.06025 | 21134 ft | 375 kts | 207° |
| 2026-05-05 17:32 | 33.88071 | -96.07072 | 20553 ft | 371 kts | 208° |
| 2026-05-05 17:32 | 33.85665 | -96.08158 | 20010 ft | 367 kts | 208° |
| 2026-05-05 17:32 | 33.83284 | -96.09253 | 19432 ft | 364 kts | 209° |
| 2026-05-05 17:33 | 33.80931 | -96.10345 | 18867 ft | 362 kts | 209° |
| 2026-05-05 17:33 | 33.78585 | -96.11392 | 18298 ft | 358 kts | 208° |
| 2026-05-05 17:33 | 33.76263 | -96.12457 | 17686 ft | 356 kts | 208° |
| 2026-05-05 17:33 | 33.73961 | -96.13523 | 17087 ft | 353 kts | 208° |
| 2026-05-05 17:34 | 33.71676 | -96.14574 | 16510 ft | 350 kts | 208° |
| 2026-05-05 17:34 | 33.69415 | -96.15608 | 16099 ft | 343 kts | 208° |
| 2026-05-05 17:34 | 33.67200 | -96.16620 | 15570 ft | 340 kts | 208° |
| 2026-05-05 17:34 | 33.64996 | -96.17626 | 15040 ft | 337 kts | 208° |
| 2026-05-05 17:35 | 33.62806 | -96.18623 | 14509 ft | 335 kts | 207° |
| 2026-05-05 17:35 | 33.60634 | -96.19611 | 14187 ft | 330 kts | 207° |
| 2026-05-05 17:35 | 33.58496 | -96.20581 | 13944 ft | 327 kts | 207° |
| 2026-05-05 17:35 | 33.56339 | -96.21488 | 13718 ft | 333 kts | 205° |
| 2026-05-05 17:36 | 33.54109 | -96.22315 | 13490 ft | 337 kts | 203° |
| 2026-05-05 17:36 | 33.51861 | -96.23124 | 13227 ft | 335 kts | 204° |
| 2026-05-05 17:36 | 33.49647 | -96.23929 | 12962 ft | 329 kts | 205° |
| 2026-05-05 17:36 | 33.47476 | -96.24730 | 12563 ft | 325 kts | 205° |
| 2026-05-05 17:37 | 33.45334 | -96.25527 | 12117 ft | 320 kts | 204° |
| 2026-05-05 17:37 | 33.43933 | -96.26061 | 11806 ft | 316 kts | 205° |
| 2026-05-05 17:37 | 33.41184 | -96.27191 | 11196 ft | 311 kts | 206° |
| 2026-05-05 17:37 | 33.39175 | -96.28036 | 10710 ft | 309 kts | 206° |
| 2026-05-05 17:38 | 33.37138 | -96.28891 | 10415 ft | 300 kts | 206° |
| 2026-05-05 17:38 | 33.35200 | -96.29698 | 10241 ft | 289 kts | 206° |
| 2026-05-05 17:38 | 33.33337 | -96.30470 | 10115 ft | 277 kts | 206° |
| 2026-05-05 17:38 | 33.31545 | -96.31211 | 9998 ft | 266 kts | 206° |
| 2026-05-05 17:39 | 33.29828 | -96.31923 | 9674 ft | 265 kts | 206° |
| 2026-05-05 17:39 | 33.28095 | -96.32643 | 9311 ft | 263 kts | 206° |
| 2026-05-05 17:39 | 33.26468 | -96.33543 | 9019 ft | 253 kts | 221° |
| 2026-05-05 17:39 | 33.25200 | -96.34977 | 8995 ft | 251 kts | 230° |
| 2026-05-05 17:40 | 33.24010 | -96.36451 | 8916 ft | 241 kts | 231° |
| 2026-05-05 17:40 | 33.22872 | -96.37946 | 8414 ft | 245 kts | 232° |
| 2026-05-05 17:40 | 33.21733 | -96.39475 | 8012 ft | 247 kts | 232° |
| 2026-05-05 17:40 | 33.20603 | -96.41009 | 7665 ft | 246 kts | 232° |
| 2026-05-05 17:41 | 33.19481 | -96.42549 | 7278 ft | 246 kts | 232° |
| 2026-05-05 17:41 | 33.18358 | -96.44099 | 6959 ft | 245 kts | 232° |
| 2026-05-05 17:41 | 33.17248 | -96.45627 | 6635 ft | 243 kts | 232° |
| 2026-05-05 17:41 | 33.16192 | -96.47209 | 6225 ft | 244 kts | 237° |
| 2026-05-05 17:42 | 33.15261 | -96.48884 | 5911 ft | 241 kts | 239° |
| 2026-05-05 17:42 | 33.14362 | -96.50552 | 5642 ft | 238 kts | 239° |
| 2026-05-05 17:42 | 33.13768 | -96.51651 | 5399 ft | 238 kts | 239° |
| 2026-05-05 17:42 | 33.12868 | -96.53310 | 5040 ft | 238 kts | 239° |
| 2026-05-05 17:43 | 33.11964 | -96.54962 | 4750 ft | 236 kts | 238° |
| 2026-05-05 17:43 | 33.11063 | -96.56597 | 4377 ft | 237 kts | 238° |
| 2026-05-05 17:43 | 33.10161 | -96.58223 | 4066 ft | 233 kts | 238° |
| 2026-05-05 17:43 | 33.09268 | -96.59834 | 3776 ft | 231 kts | 238° |
| 2026-05-05 17:44 | 33.08387 | -96.61415 | 3539 ft | 227 kts | 237° |
| 2026-05-05 17:44 | 33.07529 | -96.62951 | 3285 ft | 223 kts | 237° |
| 2026-05-05 17:44 | 33.06677 | -96.64476 | 3078 ft | 217 kts | 237° |
| 2026-05-05 17:44 | 33.05862 | -96.65931 | 3009 ft | 205 kts | 237° |
| 2026-05-05 17:45 | 33.05090 | -96.67303 | 2993 ft | 196 kts | 238° |
| 2026-05-05 17:45 | 33.04329 | -96.68656 | 2996 ft | 197 kts | 237° |
| 2026-05-05 17:45 | 33.03565 | -96.70024 | 3012 ft | 198 kts | 237° |
| 2026-05-05 17:45 | 33.02801 | -96.71387 | 3002 ft | 197 kts | 237° |
| 2026-05-05 17:46 | 33.02046 | -96.72728 | 2999 ft | 194 kts | 237° |
| 2026-05-05 17:46 | 33.01295 | -96.74069 | 3012 ft | 195 kts | 238° |
| 2026-05-05 17:46 | 33.00530 | -96.75433 | 3008 ft | 201 kts | 238° |
| 2026-05-05 17:46 | 32.99757 | -96.76812 | 3002 ft | 199 kts | 237° |
| 2026-05-05 17:47 | 32.98991 | -96.78175 | 3006 ft | 197 kts | 238° |
| 2026-05-05 17:47 | 32.98234 | -96.79520 | 3009 ft | 195 kts | 238° |
| 2026-05-05 17:47 | 32.97476 | -96.80865 | 3010 ft | 196 kts | 237° |
| 2026-05-05 17:47 | 32.96715 | -96.82217 | 3005 ft | 197 kts | 238° |
| 2026-05-05 17:48 | 32.96074 | -96.83597 | 2990 ft | 186 kts | 255° |
| 2026-05-05 17:48 | 32.95917 | -96.85106 | 2870 ft | 182 kts | 264° |
| 2026-05-05 17:48 | 32.95876 | -96.86600 | 2760 ft | 179 kts | 265° |
| 2026-05-05 17:48 | 32.95839 | -96.88118 | 2676 ft | 187 kts | 263° |
| 2026-05-05 17:49 | 32.95795 | -96.89692 | 2563 ft | 193 kts | 264° |
| 2026-05-05 17:49 | 32.95523 | -96.91198 | 2419 ft | 181 kts | 235° |
| 2026-05-05 17:49 | 32.94698 | -96.92236 | 2257 ft | 167 kts | 211° |
| 2026-05-05 17:49 | 32.93687 | -96.92789 | 2103 ft | 155 kts | 201° |
| 2026-05-05 17:50 | 32.92655 | -96.92899 | 1941 ft | 150 kts | 168° |
| 2026-05-05 17:50 | 32.91732 | -96.92365 | 1880 ft | 153 kts | 155° |
| 2026-05-05 17:50 | 32.90829 | -96.91670 | 1790 ft | 157 kts | 146° |
| 2026-05-05 17:50 | 32.90037 | -96.90757 | 1672 ft | 158 kts | 141° |
| 2026-05-05 17:51 | 32.89293 | -96.89842 | 1592 ft | 153 kts | 142° |
| 2026-05-05 17:51 | 32.88563 | -96.88933 | 1507 ft | 148 kts | 143° |
| 2026-05-05 17:51 | 32.87820 | -96.88055 | 1222 ft | 153 kts | 143° |
| 2026-05-05 17:51 | 32.87064 | -96.87200 | 954 ft | 148 kts | 142° |
| 2026-05-05 17:52 | 32.86324 | -96.86345 | 694 ft | 152 kts | 142° |
| 2026-05-05 17:52 | 32.85547 | -96.85455 | 506 ft | 151 kts | 142° |
| 2026-05-05 17:52 | 32.84885 | -96.84698 | 483 ft | 105 kts | 137° |
| 2026-05-05 17:52 | 32.84514 | -96.84280 | 490 ft | 32 kts | 136° |
| 2026-05-05 17:53 | 32.84448 | -96.84262 | 482 ft | 10 kts | 218° |
| 2026-05-05 17:53 | 32.84407 | -96.84342 | 481 ft | 13 kts | 279° |
| 2026-05-05 17:53 | 32.84470 | -96.84411 | 479 ft | 12 kts | 322° |
| 2026-05-05 17:53 | 32.84534 | -96.84478 | 484 ft | 12 kts | 316° |
| 2026-05-05 17:54 | 32.84592 | -96.84546 | 484 ft | 12 kts | 315° |
| 2026-05-05 17:54 | 32.84657 | -96.84624 | 480 ft | 14 kts | 316° |
| 2026-05-05 17:54 | 32.84728 | -96.84703 | 484 ft | 14 kts | 318° |
| 2026-05-05 17:54 | 32.84779 | -96.84782 | 480 ft | 11 kts | 268° |
| 2026-05-05 17:55 | 32.84752 | -96.84843 | 483 ft | 6 kts | 255° |
| 2026-05-05 17:55 | 32.84746 | -96.84901 | 483 ft | 10 kts | 266° |
| 2026-05-05 17:55 | 32.84747 | -96.84994 | 483 ft | 12 kts | 272° |
| 2026-05-05 17:55 | 32.84749 | -96.85088 | 483 ft | 11 kts | 269° |
| 2026-05-05 17:56 | 32.84747 | -96.85180 | 483 ft | 11 kts | 270° |
| 2026-05-05 17:56 | 32.84748 | -96.85269 | 481 ft | 11 kts | 268° |
| 2026-05-05 17:56 | 32.84693 | -96.85319 | 476 ft | 10 kts | 199° |
| 2026-05-05 17:56 | 32.84624 | -96.85335 | 478 ft | 10 kts | 189° |
| 2026-05-05 17:57 | 32.84556 | -96.85330 | 478 ft | 10 kts | 165° |
| 2026-05-05 17:57 | 32.84513 | -96.85281 | 477 ft | 10 kts | 91° |
| 2026-05-05 17:57 | 32.84513 | -96.85204 | 482 ft | 7 kts | 88° |
| 2026-05-05 17:57 | 32.84530 | -96.85156 | 481 ft | 7 kts | 15° |
| 2026-05-05 17:58 | 32.84558 | -96.85154 | 478 ft | 2 kts | 0° |
| 2026-05-05 17:58 | 32.84567 | -96.85154 | 481 ft | 1 kts | 0° |
| 2026-05-05 17:58 | 32.84569 | -96.85154 | 481 ft | 0 kts | 0° |